createdAt,value
2022-10-01T00:00:06.000Z,7.44
2022-10-01T00:01:06.000Z,7.37
2022-10-01T00:02:06.000Z,7.42
2022-10-01T00:03:06.000Z,7.39
2022-10-01T00:04:06.000Z,7.36
2022-10-01T00:05:06.000Z,7.39
2022-10-01T00:06:06.000Z,7.45
2022-10-01T00:07:06.000Z,7.39
2022-10-01T00:08:06.000Z,7.41
2022-10-01T00:09:06.000Z,7.42
2022-10-01T00:10:06.000Z,7.42
2022-10-01T00:11:06.000Z,7.42
2022-10-01T00:12:06.000Z,7.42
2022-10-01T00:13:06.000Z,7.41
2022-10-01T00:14:06.000Z,7.44
2022-10-01T00:15:06.000Z,7.42
2022-10-01T00:16:06.000Z,7.45
2022-10-01T00:17:06.000Z,7.42
2022-10-01T00:18:06.000Z,7.39
2022-10-01T00:19:06.000Z,7.41
2022-10-01T00:20:06.000Z,7.44
2022-10-01T00:21:06.000Z,7.37
2022-10-01T00:22:06.000Z,7.36
2022-10-01T00:23:06.000Z,7.39
2022-10-01T00:24:06.000Z,7.37
2022-10-01T00:25:06.000Z,7.41
2022-10-01T00:26:06.000Z,7.37
2022-10-01T00:27:06.000Z,7.36
2022-10-01T00:28:06.000Z,7.42
2022-10-01T00:29:06.000Z,7.39
2022-10-01T00:30:06.000Z,7.42
2022-10-01T00:31:06.000Z,7.37
2022-10-01T00:32:06.000Z,7.37
2022-10-01T00:33:06.000Z,7.37
2022-10-01T00:34:06.000Z,7.36
2022-10-01T00:35:06.000Z,7.41
2022-10-01T00:36:06.000Z,7.42
2022-10-01T00:37:06.000Z,7.44
2022-10-01T00:38:06.000Z,7.39
2022-10-01T00:39:06.000Z,7.44
2022-10-01T00:40:06.000Z,7.44
2022-10-01T00:41:06.000Z,7.47
2022-10-01T00:42:06.000Z,7.42
2022-10-01T00:43:06.000Z,7.47
2022-10-01T00:44:06.000Z,7.45
2022-10-01T00:45:06.000Z,7.48
2022-10-01T00:46:06.000Z,7.48
2022-10-01T00:47:06.000Z,7.50
2022-10-01T00:48:06.000Z,7.51
2022-10-01T00:49:06.000Z,7.57
2022-10-01T00:50:06.000Z,7.55
2022-10-01T00:51:06.000Z,7.52
2022-10-01T00:52:06.000Z,7.55
2022-10-01T00:53:06.000Z,7.55
2022-10-01T00:54:06.000Z,7.55
2022-10-01T00:55:06.000Z,7.54
2022-10-01T00:56:06.000Z,7.58
2022-10-01T00:57:06.000Z,7.55
2022-10-01T00:58:06.000Z,7.60
2022-10-01T00:59:06.000Z,7.57
2022-10-01T01:00:06.000Z,7.58
2022-10-01T01:01:06.000Z,7.58
2022-10-01T01:02:06.000Z,7.62
2022-10-01T01:03:06.000Z,7.60
2022-10-01T01:04:06.000Z,7.63
2022-10-01T01:05:06.000Z,7.63
2022-10-01T01:06:06.000Z,7.60
2022-10-01T01:07:06.000Z,7.60
2022-10-01T01:08:06.000Z,7.62
2022-10-01T01:09:06.000Z,7.62
2022-10-01T01:10:06.000Z,7.62
2022-10-01T01:11:06.000Z,7.63
2022-10-01T01:12:05.000Z,7.57
2022-10-01T01:13:05.000Z,7.62
2022-10-01T01:14:05.000Z,7.63
2022-10-01T01:15:05.000Z,7.63
2022-10-01T01:16:05.000Z,7.62
2022-10-01T01:17:05.000Z,7.67
2022-10-01T01:18:05.000Z,7.63
2022-10-01T01:19:05.000Z,7.63
2022-10-01T01:20:05.000Z,7.66
2022-10-01T01:21:05.000Z,7.66
2022-10-01T01:22:05.000Z,7.69
2022-10-01T01:23:05.000Z,7.69
2022-10-01T01:24:05.000Z,7.67
2022-10-01T01:25:05.000Z,7.66
2022-10-01T01:26:05.000Z,7.69
2022-10-01T01:27:05.000Z,7.70
2022-10-01T01:28:05.000Z,7.69
2022-10-01T01:29:05.000Z,7.70
2022-10-01T01:30:05.000Z,7.73
2022-10-01T01:31:05.000Z,7.74
2022-10-01T01:32:05.000Z,7.69
2022-10-01T01:33:05.000Z,7.69
2022-10-01T01:34:05.000Z,7.73
2022-10-01T01:35:05.000Z,7.73
2022-10-01T01:36:05.000Z,7.77
2022-10-01T01:37:05.000Z,7.81
2022-10-01T01:38:05.000Z,7.85
2022-10-01T01:39:05.000Z,7.84
2022-10-01T01:40:05.000Z,7.86
2022-10-01T01:41:05.000Z,7.79
2022-10-01T01:42:05.000Z,7.81
2022-10-01T01:43:05.000Z,7.79
2022-10-01T01:44:05.000Z,7.81
2022-10-01T01:45:05.000Z,7.79
2022-10-01T01:46:05.000Z,7.81
2022-10-01T01:47:05.000Z,7.79
2022-10-01T01:48:05.000Z,7.76
2022-10-01T01:49:05.000Z,7.79
2022-10-01T01:50:05.000Z,7.79
2022-10-01T01:51:05.000Z,7.76
2022-10-01T01:52:05.000Z,7.74
2022-10-01T01:53:05.000Z,7.76
2022-10-01T01:54:05.000Z,7.71
2022-10-01T01:55:05.000Z,7.73
2022-10-01T01:56:05.000Z,7.73
2022-10-01T01:57:05.000Z,7.73
2022-10-01T01:58:05.000Z,7.74
2022-10-01T01:59:05.000Z,7.71
2022-10-01T02:00:05.000Z,7.74
2022-10-01T02:01:05.000Z,7.71
2022-10-01T02:02:05.000Z,7.73
2022-10-01T02:03:05.000Z,7.73
2022-10-01T02:04:05.000Z,7.76
2022-10-01T02:05:05.000Z,7.76
2022-10-01T02:06:05.000Z,7.71
2022-10-01T02:07:05.000Z,7.74
2022-10-01T02:08:05.000Z,7.74
2022-10-01T02:09:05.000Z,7.76
2022-10-01T02:10:05.000Z,7.73
2022-10-01T02:11:05.000Z,7.71
2022-10-01T02:12:05.000Z,7.76
2022-10-01T02:13:05.000Z,7.74
2022-10-01T02:14:05.000Z,7.74
2022-10-01T02:15:05.000Z,7.70
2022-10-01T02:16:05.000Z,7.73
2022-10-01T02:17:05.000Z,7.73
2022-10-01T02:18:05.000Z,7.74
2022-10-01T02:19:05.000Z,7.74
2022-10-01T02:20:05.000Z,7.77
2022-10-01T02:21:05.000Z,7.74
2022-10-01T02:22:05.000Z,7.77
2022-10-01T02:23:05.000Z,7.71
2022-10-01T02:24:05.000Z,7.71
2022-10-01T02:25:05.000Z,7.73
2022-10-01T02:26:04.000Z,7.73
2022-10-01T02:27:04.000Z,7.77
2022-10-01T02:28:04.000Z,7.73
2022-10-01T02:29:04.000Z,7.74
2022-10-01T02:30:04.000Z,7.74
2022-10-01T02:31:04.000Z,7.77
2022-10-01T02:32:04.000Z,7.79
2022-10-01T02:33:04.000Z,7.76
2022-10-01T02:34:04.000Z,7.79
2022-10-01T02:35:04.000Z,7.82
2022-10-01T02:36:04.000Z,7.82
2022-10-01T02:37:04.000Z,7.82
2022-10-01T02:38:04.000Z,7.84
2022-10-01T02:39:04.000Z,7.82
2022-10-01T02:40:04.000Z,7.88
2022-10-01T02:41:04.000Z,7.85
2022-10-01T02:42:04.000Z,7.91
2022-10-01T02:43:04.000Z,7.91
2022-10-01T02:44:04.000Z,7.92
2022-10-01T02:45:04.000Z,7.94
2022-10-01T02:46:04.000Z,7.91
2022-10-01T02:47:04.000Z,7.96
2022-10-01T02:48:04.000Z,7.96
2022-10-01T02:49:04.000Z,7.96
2022-10-01T02:50:04.000Z,7.96
2022-10-01T02:51:04.000Z,7.99
2022-10-01T02:52:04.000Z,8.00
2022-10-01T02:53:04.000Z,7.99
2022-10-01T02:54:04.000Z,8.02
2022-10-01T02:55:04.000Z,8.03
2022-10-01T02:56:04.000Z,8.09
2022-10-01T02:57:04.000Z,8.06
2022-10-01T02:58:04.000Z,8.09
2022-10-01T02:59:04.000Z,8.04
2022-10-01T03:00:04.000Z,8.06
2022-10-01T03:01:04.000Z,8.07
2022-10-01T03:02:04.000Z,8.09
2022-10-01T03:03:04.000Z,8.10
2022-10-01T03:04:04.000Z,8.10
2022-10-01T03:05:04.000Z,8.10
2022-10-01T03:06:04.000Z,8.12
2022-10-01T03:07:04.000Z,8.13
2022-10-01T03:08:04.000Z,8.14
2022-10-01T03:09:04.000Z,8.18
2022-10-01T03:10:04.000Z,8.17
2022-10-01T03:11:04.000Z,8.17
2022-10-01T03:12:04.000Z,8.18
2022-10-01T03:13:04.000Z,8.14
2022-10-01T03:14:04.000Z,8.17
2022-10-01T03:15:04.000Z,8.20
2022-10-01T03:16:04.000Z,8.18
2022-10-01T03:17:04.000Z,8.21
2022-10-01T03:18:04.000Z,8.21
2022-10-01T03:19:04.000Z,8.24
2022-10-01T03:20:04.000Z,8.25
2022-10-01T03:21:04.000Z,8.22
2022-10-01T03:22:04.000Z,8.25
2022-10-01T03:23:04.000Z,8.27
2022-10-01T03:24:04.000Z,8.24
2022-10-01T03:25:04.000Z,8.27
2022-10-01T03:26:04.000Z,8.25
2022-10-01T03:27:04.000Z,8.28
2022-10-01T03:28:04.000Z,8.27
2022-10-01T03:29:04.000Z,8.25
2022-10-01T03:30:04.000Z,8.27
2022-10-01T03:31:04.000Z,8.28
2022-10-01T03:32:04.000Z,8.28
2022-10-01T03:33:04.000Z,8.25
2022-10-01T03:34:04.000Z,8.27
2022-10-01T03:35:04.000Z,8.31
2022-10-01T03:36:04.000Z,8.25
2022-10-01T03:37:04.000Z,8.27
2022-10-01T03:38:04.000Z,8.25
2022-10-01T03:39:04.000Z,8.24
2022-10-01T03:40:03.000Z,8.27
2022-10-01T03:41:03.000Z,8.24
2022-10-01T03:42:03.000Z,8.22
2022-10-01T03:43:03.000Z,8.24
2022-10-01T03:44:03.000Z,8.27
2022-10-01T03:45:03.000Z,8.25
2022-10-01T03:46:03.000Z,8.22
2022-10-01T03:47:03.000Z,8.20
2022-10-01T03:48:03.000Z,8.22
2022-10-01T03:49:03.000Z,8.24
2022-10-01T03:50:03.000Z,8.24
2022-10-01T03:51:03.000Z,8.21
2022-10-01T03:52:03.000Z,8.22
2022-10-01T03:53:03.000Z,8.24
2022-10-01T03:54:03.000Z,8.22
2022-10-01T03:55:03.000Z,8.25
2022-10-01T03:56:03.000Z,8.24
2022-10-01T03:57:03.000Z,8.27
2022-10-01T03:58:03.000Z,8.25
2022-10-01T03:59:03.000Z,8.27
2022-10-01T04:00:03.000Z,8.25
2022-10-01T04:01:03.000Z,8.27
2022-10-01T04:02:03.000Z,8.31
2022-10-01T04:03:03.000Z,8.31
2022-10-01T04:04:03.000Z,8.29
2022-10-01T04:05:03.000Z,8.31
2022-10-01T04:06:03.000Z,8.31
2022-10-01T04:07:03.000Z,8.32
2022-10-01T04:08:03.000Z,8.36
2022-10-01T04:09:03.000Z,8.39
2022-10-01T04:10:03.000Z,8.34
2022-10-01T04:11:03.000Z,8.34
2022-10-01T04:12:03.000Z,8.37
2022-10-01T04:13:03.000Z,8.40
2022-10-01T04:14:03.000Z,8.42
2022-10-01T04:15:03.000Z,8.40
2022-10-01T04:16:03.000Z,8.40
2022-10-01T04:17:03.000Z,8.42
2022-10-01T04:18:03.000Z,8.39
2022-10-01T04:19:03.000Z,8.43
2022-10-01T04:20:03.000Z,8.43
2022-10-01T04:21:03.000Z,8.45
2022-10-01T04:22:03.000Z,8.45
2022-10-01T04:23:03.000Z,8.46
2022-10-01T04:24:03.000Z,8.47
2022-10-01T04:25:03.000Z,8.49
2022-10-01T04:26:03.000Z,8.47
2022-10-01T04:27:03.000Z,8.50
2022-10-01T04:28:03.000Z,8.47
2022-10-01T04:29:03.000Z,8.46
2022-10-01T04:30:03.000Z,8.47
2022-10-01T04:31:03.000Z,8.46
2022-10-01T04:32:03.000Z,8.47
2022-10-01T04:33:03.000Z,8.45
2022-10-01T04:34:03.000Z,8.49
2022-10-01T04:35:03.000Z,8.47
2022-10-01T04:36:03.000Z,8.49
2022-10-01T04:37:03.000Z,8.50
2022-10-01T04:38:03.000Z,8.49
2022-10-01T04:39:03.000Z,8.57
2022-10-01T04:40:03.000Z,8.55
2022-10-01T04:41:03.000Z,8.57
2022-10-01T04:42:03.000Z,8.58
2022-10-01T04:43:03.000Z,8.64
2022-10-01T04:44:03.000Z,8.68
2022-10-01T04:45:03.000Z,8.70
2022-10-01T04:46:03.000Z,8.76
2022-10-01T04:47:03.000Z,8.80
2022-10-01T04:48:03.000Z,8.80
2022-10-01T04:49:03.000Z,8.83
2022-10-01T04:50:03.000Z,8.88
2022-10-01T04:51:03.000Z,8.86
2022-10-01T04:52:03.000Z,8.93
2022-10-01T04:53:03.000Z,8.94
2022-10-01T04:54:02.000Z,8.96
2022-10-01T04:55:02.000Z,8.96
2022-10-01T04:56:02.000Z,8.97
2022-10-01T04:57:02.000Z,8.97
2022-10-01T04:58:02.000Z,9.03
2022-10-01T04:59:02.000Z,9.04
2022-10-01T05:00:02.000Z,9.08
2022-10-01T05:01:02.000Z,9.06
2022-10-01T05:02:02.000Z,9.12
2022-10-01T05:03:02.000Z,9.12
2022-10-01T05:04:02.000Z,9.13
2022-10-01T05:05:02.000Z,9.17
2022-10-01T05:06:02.000Z,9.16
2022-10-01T05:07:02.000Z,9.20
2022-10-01T05:08:02.000Z,9.22
2022-10-01T05:09:02.000Z,9.22
2022-10-01T05:10:02.000Z,9.23
2022-10-01T05:11:02.000Z,9.26
2022-10-01T05:12:02.000Z,9.27
2022-10-01T05:13:02.000Z,9.27
2022-10-01T05:14:02.000Z,9.30
2022-10-01T05:15:02.000Z,9.26
2022-10-01T05:16:02.000Z,9.27
2022-10-01T05:17:02.000Z,9.26
2022-10-01T05:18:02.000Z,9.26
2022-10-01T05:19:02.000Z,9.30
2022-10-01T05:20:02.000Z,9.34
2022-10-01T05:21:02.000Z,9.34
2022-10-01T05:22:02.000Z,9.32
2022-10-01T05:23:02.000Z,9.35
2022-10-01T05:24:02.000Z,9.38
2022-10-01T05:25:02.000Z,9.41
2022-10-01T05:26:02.000Z,9.41
2022-10-01T05:27:02.000Z,9.40
2022-10-01T05:28:02.000Z,9.41
2022-10-01T05:29:02.000Z,9.45
2022-10-01T05:30:02.000Z,9.52
2022-10-01T05:31:02.000Z,9.52
2022-10-01T05:32:02.000Z,9.53
2022-10-01T05:33:02.000Z,9.58
2022-10-01T05:34:02.000Z,9.55
2022-10-01T05:35:02.000Z,9.58
2022-10-01T05:36:02.000Z,9.62
2022-10-01T05:37:02.000Z,9.63
2022-10-01T05:38:02.000Z,9.65
2022-10-01T05:39:02.000Z,9.68
2022-10-01T05:40:02.000Z,9.67
2022-10-01T05:41:02.000Z,9.68
2022-10-01T05:42:02.000Z,9.68
2022-10-01T05:43:02.000Z,9.73
2022-10-01T05:44:02.000Z,9.74
2022-10-01T05:45:02.000Z,9.78
2022-10-01T05:46:02.000Z,9.78
2022-10-01T05:47:02.000Z,9.78
2022-10-01T05:48:02.000Z,9.80
2022-10-01T05:49:02.000Z,9.80
2022-10-01T05:50:02.000Z,9.80
2022-10-01T05:51:02.000Z,9.83
2022-10-01T05:52:02.000Z,9.83
2022-10-01T05:53:02.000Z,9.85
2022-10-01T05:54:02.000Z,9.93
2022-10-01T05:55:02.000Z,9.93
2022-10-01T05:56:02.000Z,9.91
2022-10-01T05:57:02.000Z,9.93
2022-10-01T05:58:02.000Z,9.95
2022-10-01T05:59:02.000Z,9.98
2022-10-01T06:00:02.000Z,10.01
2022-10-01T06:01:02.000Z,10.01
2022-10-01T06:02:02.000Z,10.01
2022-10-01T06:03:02.000Z,10.02
2022-10-01T06:04:02.000Z,10.06
2022-10-01T06:05:02.000Z,10.02
2022-10-01T06:06:02.000Z,10.07
2022-10-01T06:07:02.000Z,10.04
2022-10-01T06:08:01.000Z,10.09
2022-10-01T06:09:01.000Z,10.11
2022-10-01T06:10:01.000Z,10.16
2022-10-01T06:11:01.000Z,10.16
2022-10-01T06:12:01.000Z,10.16
2022-10-01T06:13:01.000Z,10.18
2022-10-01T06:14:01.000Z,10.18
2022-10-01T06:15:01.000Z,10.24
2022-10-01T06:16:01.000Z,10.25
2022-10-01T06:17:01.000Z,10.26
2022-10-01T06:18:01.000Z,10.26
2022-10-01T06:19:01.000Z,10.29
2022-10-01T06:20:01.000Z,10.29
2022-10-01T06:21:01.000Z,10.32
2022-10-01T06:22:01.000Z,10.32
2022-10-01T06:23:01.000Z,10.34
2022-10-01T06:24:01.000Z,10.34
2022-10-01T06:25:01.000Z,10.35
2022-10-01T06:26:01.000Z,10.38
2022-10-01T06:27:01.000Z,10.47
2022-10-01T06:28:01.000Z,10.44
2022-10-01T06:29:01.000Z,10.44
2022-10-01T06:30:01.000Z,10.49
2022-10-01T06:31:01.000Z,10.55
2022-10-01T06:32:01.000Z,10.58
2022-10-01T06:33:01.000Z,10.58
2022-10-01T06:34:01.000Z,10.60
2022-10-01T06:35:01.000Z,10.62
2022-10-01T06:36:01.000Z,10.66
2022-10-01T06:37:01.000Z,10.69
2022-10-01T06:38:01.000Z,10.70
2022-10-01T06:39:01.000Z,10.73
2022-10-01T06:40:01.000Z,10.75
2022-10-01T06:41:01.000Z,10.80
2022-10-01T06:42:01.000Z,10.78
2022-10-01T06:43:01.000Z,10.78
2022-10-01T06:44:01.000Z,10.83
2022-10-01T06:45:01.000Z,10.81
2022-10-01T06:46:01.000Z,10.83
2022-10-01T06:47:01.000Z,10.88
2022-10-01T06:48:01.000Z,10.83
2022-10-01T06:49:01.000Z,10.88
2022-10-01T06:50:01.000Z,10.87
2022-10-01T06:51:01.000Z,10.88
2022-10-01T06:52:01.000Z,10.90
2022-10-01T06:53:01.000Z,10.93
2022-10-01T06:54:01.000Z,10.90
2022-10-01T06:55:01.000Z,10.87
2022-10-01T06:56:01.000Z,10.90
2022-10-01T06:57:01.000Z,10.93
2022-10-01T06:58:01.000Z,10.93
2022-10-01T06:59:01.000Z,10.98
2022-10-01T07:00:01.000Z,10.99
2022-10-01T07:01:01.000Z,11.01
2022-10-01T07:02:01.000Z,10.98
2022-10-01T07:03:01.000Z,10.95
2022-10-01T07:04:01.000Z,10.99
2022-10-01T07:05:01.000Z,10.99
2022-10-01T07:06:01.000Z,10.99
2022-10-01T07:07:01.000Z,11.02
2022-10-01T07:08:01.000Z,11.02
2022-10-01T07:09:01.000Z,11.05
2022-10-01T07:10:01.000Z,11.06
2022-10-01T07:11:01.000Z,11.09
2022-10-01T07:12:01.000Z,11.12
2022-10-01T07:13:01.000Z,11.16
2022-10-01T07:14:01.000Z,11.17
2022-10-01T07:15:01.000Z,11.20
2022-10-01T07:16:01.000Z,11.21
2022-10-01T07:17:01.000Z,11.24
2022-10-01T07:18:01.000Z,11.23
2022-10-01T07:19:01.000Z,11.23
2022-10-01T07:20:01.000Z,11.23
2022-10-01T07:21:01.000Z,11.24
2022-10-01T07:22:00.000Z,11.24
2022-10-01T07:23:00.000Z,11.26
2022-10-01T07:24:00.000Z,11.26
2022-10-01T07:25:00.000Z,11.31
2022-10-01T07:26:00.000Z,11.27
2022-10-01T07:27:00.000Z,11.27
2022-10-01T07:28:00.000Z,11.33
2022-10-01T07:29:00.000Z,11.31
2022-10-01T07:30:00.000Z,11.33
2022-10-01T07:31:00.000Z,11.31
2022-10-01T07:32:00.000Z,11.31
2022-10-01T07:33:00.000Z,11.33
2022-10-01T07:34:00.000Z,11.30
2022-10-01T07:35:00.000Z,11.28
2022-10-01T07:36:00.000Z,11.23
2022-10-01T07:37:00.000Z,11.20
2022-10-01T07:38:00.000Z,11.16
2022-10-01T07:39:00.000Z,11.12
2022-10-01T07:40:00.000Z,11.09
2022-10-01T07:41:00.000Z,11.06
2022-10-01T07:42:00.000Z,11.03
2022-10-01T07:43:00.000Z,11.02
2022-10-01T07:44:00.000Z,10.98
2022-10-01T07:45:00.000Z,10.98
2022-10-01T07:46:00.000Z,10.95
2022-10-01T07:47:00.000Z,10.95
2022-10-01T07:48:00.000Z,10.94
2022-10-01T07:49:00.000Z,10.91
2022-10-01T07:50:00.000Z,10.91
2022-10-01T07:51:00.000Z,10.93
2022-10-01T07:52:00.000Z,10.88
2022-10-01T07:53:00.000Z,10.87
2022-10-01T07:54:00.000Z,10.90
2022-10-01T07:55:00.000Z,10.84
2022-10-01T07:56:00.000Z,10.87
2022-10-01T07:57:00.000Z,10.83
2022-10-01T07:58:00.000Z,10.80
2022-10-01T07:59:00.000Z,10.81
2022-10-01T08:00:00.000Z,10.78
2022-10-01T08:01:00.000Z,10.81
2022-10-01T08:02:00.000Z,10.76
2022-10-01T08:03:00.000Z,10.76
2022-10-01T08:04:00.000Z,10.80
2022-10-01T08:05:00.000Z,10.76
2022-10-01T08:06:00.000Z,10.76
2022-10-01T08:07:00.000Z,10.80
2022-10-01T08:08:00.000Z,10.75
2022-10-01T08:09:00.000Z,10.76
2022-10-01T08:10:00.000Z,10.76
2022-10-01T08:11:00.000Z,10.76
2022-10-01T08:12:00.000Z,10.75
2022-10-01T08:13:00.000Z,10.76
2022-10-01T08:14:00.000Z,10.76
2022-10-01T08:15:00.000Z,10.78
2022-10-01T08:16:00.000Z,10.76
2022-10-01T08:17:00.000Z,10.76
2022-10-01T08:18:00.000Z,10.78
2022-10-01T08:19:00.000Z,10.78
2022-10-01T08:20:00.000Z,10.81
2022-10-01T08:21:00.000Z,10.81
2022-10-01T08:22:00.000Z,10.76
2022-10-01T08:23:00.000Z,10.78
2022-10-01T08:24:00.000Z,10.73
2022-10-01T08:25:00.000Z,10.75
2022-10-01T08:26:00.000Z,10.70
2022-10-01T08:27:00.000Z,10.73
2022-10-01T08:28:00.000Z,10.76
2022-10-01T08:29:00.000Z,10.78
2022-10-01T08:30:00.000Z,10.73
2022-10-01T08:31:00.000Z,10.81
2022-10-01T08:32:00.000Z,10.73
2022-10-01T08:33:00.000Z,10.78
2022-10-01T08:34:00.000Z,10.78
2022-10-01T08:35:00.000Z,10.80
2022-10-01T08:35:59.000Z,10.76
2022-10-01T08:36:59.000Z,10.81
2022-10-01T08:37:59.000Z,10.83
2022-10-01T08:38:59.000Z,10.81
2022-10-01T08:39:59.000Z,10.83
2022-10-01T08:40:59.000Z,10.86
2022-10-01T08:41:59.000Z,10.87
2022-10-01T08:42:59.000Z,10.86
2022-10-01T08:43:59.000Z,10.91
2022-10-01T08:44:59.000Z,10.90
2022-10-01T08:45:59.000Z,10.88
2022-10-01T08:46:59.000Z,10.95
2022-10-01T08:47:59.000Z,10.98
2022-10-01T08:48:59.000Z,10.98
2022-10-01T08:49:59.000Z,11.01
2022-10-01T08:50:59.000Z,11.05
2022-10-01T08:51:59.000Z,11.03
2022-10-01T08:52:59.000Z,11.09
2022-10-01T08:53:59.000Z,11.06
2022-10-01T08:54:59.000Z,11.11
2022-10-01T08:55:59.000Z,11.11
2022-10-01T08:56:59.000Z,11.17
2022-10-01T08:57:59.000Z,11.13
2022-10-01T08:58:59.000Z,11.19
2022-10-01T08:59:59.000Z,11.20
2022-10-01T09:00:59.000Z,11.20
2022-10-01T09:01:59.000Z,11.20
2022-10-01T09:02:59.000Z,11.21
2022-10-01T09:03:59.000Z,11.21
2022-10-01T09:04:59.000Z,11.21
2022-10-01T09:05:59.000Z,11.24
2022-10-01T09:06:59.000Z,11.28
2022-10-01T09:07:59.000Z,11.30
2022-10-01T09:08:59.000Z,11.28
2022-10-01T09:09:59.000Z,11.28
2022-10-01T09:10:59.000Z,11.28
2022-10-01T09:11:59.000Z,11.28
2022-10-01T09:12:59.000Z,11.27
2022-10-01T09:13:59.000Z,11.28
2022-10-01T09:14:59.000Z,11.26
2022-10-01T09:15:59.000Z,11.27
2022-10-01T09:16:59.000Z,11.27
2022-10-01T09:17:59.000Z,11.24
2022-10-01T09:18:59.000Z,11.21
2022-10-01T09:19:59.000Z,11.19
2022-10-01T09:20:59.000Z,11.17
2022-10-01T09:21:59.000Z,11.16
2022-10-01T09:22:59.000Z,11.12
2022-10-01T09:23:59.000Z,11.13
2022-10-01T09:24:59.000Z,11.11
2022-10-01T09:25:59.000Z,11.09
2022-10-01T09:26:59.000Z,11.08
2022-10-01T09:27:59.000Z,11.06
2022-10-01T09:28:59.000Z,11.06
2022-10-01T09:29:59.000Z,11.01
2022-10-01T09:30:59.000Z,11.02
2022-10-01T09:31:59.000Z,10.94
2022-10-01T09:32:59.000Z,10.95
2022-10-01T09:33:59.000Z,10.88
2022-10-01T09:34:59.000Z,10.87
2022-10-01T09:35:59.000Z,10.84
2022-10-01T09:36:59.000Z,10.81
2022-10-01T09:37:59.000Z,10.81
2022-10-01T09:38:59.000Z,10.78
2022-10-01T09:39:59.000Z,10.78
2022-10-01T09:40:59.000Z,10.70
2022-10-01T09:41:59.000Z,10.75
2022-10-01T09:42:59.000Z,10.75
2022-10-01T09:43:59.000Z,10.69
2022-10-01T09:44:59.000Z,10.69
2022-10-01T09:45:59.000Z,10.69
2022-10-01T09:46:59.000Z,10.66
2022-10-01T09:47:59.000Z,10.65
2022-10-01T09:48:59.000Z,10.62
2022-10-01T09:49:58.000Z,10.63
2022-10-01T09:50:58.000Z,10.62
2022-10-01T09:51:58.000Z,10.62
2022-10-01T09:52:58.000Z,10.63
2022-10-01T09:53:58.000Z,10.63
2022-10-01T09:54:58.000Z,10.60
2022-10-01T09:55:58.000Z,10.60
2022-10-01T09:56:58.000Z,10.63
2022-10-01T09:57:58.000Z,10.60
2022-10-01T09:58:58.000Z,10.60
2022-10-01T09:59:58.000Z,10.58
2022-10-01T10:00:58.000Z,10.57
2022-10-01T10:01:58.000Z,10.60
2022-10-01T10:02:58.000Z,10.58
2022-10-01T10:03:58.000Z,10.63
2022-10-01T10:04:58.000Z,10.62
2022-10-01T10:05:58.000Z,10.60
2022-10-01T10:06:58.000Z,10.58
2022-10-01T10:07:58.000Z,10.60
2022-10-01T10:08:58.000Z,10.55
2022-10-01T10:09:58.000Z,10.57
2022-10-01T10:10:58.000Z,10.57
2022-10-01T10:11:58.000Z,10.54
2022-10-01T10:12:58.000Z,10.52
2022-10-01T10:13:58.000Z,10.52
2022-10-01T10:14:58.000Z,10.54
2022-10-01T10:15:58.000Z,10.52
2022-10-01T10:16:58.000Z,10.51
2022-10-01T10:17:58.000Z,10.47
2022-10-01T10:18:58.000Z,10.51
2022-10-01T10:19:58.000Z,10.49
2022-10-01T10:20:58.000Z,10.47
2022-10-01T10:21:58.000Z,10.47
2022-10-01T10:22:58.000Z,10.46
2022-10-01T10:23:58.000Z,10.46
2022-10-01T10:24:58.000Z,10.43
2022-10-01T10:25:58.000Z,10.44
2022-10-01T10:26:58.000Z,10.43
2022-10-01T10:27:58.000Z,10.44
2022-10-01T10:28:58.000Z,10.38
2022-10-01T10:29:58.000Z,10.39
2022-10-01T10:30:58.000Z,10.42
2022-10-01T10:31:58.000Z,10.39
2022-10-01T10:32:58.000Z,10.38
2022-10-01T10:33:58.000Z,10.36
2022-10-01T10:34:58.000Z,10.34
2022-10-01T10:35:58.000Z,10.35
2022-10-01T10:36:58.000Z,10.35
2022-10-01T10:37:58.000Z,10.32
2022-10-01T10:38:58.000Z,10.34
2022-10-01T10:39:58.000Z,10.34
2022-10-01T10:40:58.000Z,10.35
2022-10-01T10:41:58.000Z,10.35
2022-10-01T10:42:58.000Z,10.35
2022-10-01T10:43:58.000Z,10.38
2022-10-01T10:44:58.000Z,10.38
2022-10-01T10:45:58.000Z,10.39
2022-10-01T10:46:58.000Z,10.35
2022-10-01T10:47:58.000Z,10.39
2022-10-01T10:48:58.000Z,10.36
2022-10-01T10:49:58.000Z,10.38
2022-10-01T10:50:58.000Z,10.42
2022-10-01T10:51:58.000Z,10.38
2022-10-01T10:52:58.000Z,10.39
2022-10-01T10:53:58.000Z,10.42
2022-10-01T10:54:58.000Z,10.38
2022-10-01T10:55:58.000Z,10.43
2022-10-01T10:56:58.000Z,10.47
2022-10-01T10:57:58.000Z,10.51
2022-10-01T10:58:58.000Z,10.52
2022-10-01T10:59:58.000Z,10.52
2022-10-01T11:00:58.000Z,10.54
2022-10-01T11:01:58.000Z,10.54
2022-10-01T11:02:58.000Z,10.63
2022-10-01T11:03:57.000Z,10.63
2022-10-01T11:04:57.000Z,10.63
2022-10-01T11:05:57.000Z,10.66
2022-10-01T11:06:57.000Z,10.68
2022-10-01T11:07:57.000Z,10.66
2022-10-01T11:08:57.000Z,10.72
2022-10-01T11:09:57.000Z,10.75
2022-10-01T11:10:57.000Z,10.76
2022-10-01T11:11:57.000Z,10.75
2022-10-01T11:12:57.000Z,10.76
2022-10-01T11:13:57.000Z,10.81
2022-10-01T11:14:57.000Z,10.81
2022-10-01T11:15:57.000Z,10.80
2022-10-01T11:16:57.000Z,10.87
2022-10-01T11:17:57.000Z,10.86
2022-10-01T11:18:57.000Z,10.86
2022-10-01T11:19:57.000Z,10.93
2022-10-01T11:20:57.000Z,10.91
2022-10-01T11:21:57.000Z,10.98
2022-10-01T11:22:57.000Z,10.94
2022-10-01T11:23:57.000Z,10.94
2022-10-01T11:24:57.000Z,10.99
2022-10-01T11:25:57.000Z,10.93
2022-10-01T11:26:57.000Z,10.95
2022-10-01T11:27:57.000Z,10.98
2022-10-01T11:28:57.000Z,10.98
2022-10-01T11:29:57.000Z,10.98
2022-10-01T11:30:57.000Z,10.98
2022-10-01T11:31:57.000Z,10.99
2022-10-01T11:32:57.000Z,11.01
2022-10-01T11:33:57.000Z,11.01
2022-10-01T11:34:57.000Z,11.02
2022-10-01T11:35:57.000Z,11.02
2022-10-01T11:36:57.000Z,11.05
2022-10-01T11:37:57.000Z,11.11
2022-10-01T11:38:57.000Z,11.09
2022-10-01T11:39:57.000Z,11.12
2022-10-01T11:40:57.000Z,11.11
2022-10-01T11:41:57.000Z,11.13
2022-10-01T11:42:57.000Z,11.16
2022-10-01T11:43:57.000Z,11.16
2022-10-01T11:44:57.000Z,11.17
2022-10-01T11:45:57.000Z,11.17
2022-10-01T11:46:57.000Z,11.17
2022-10-01T11:47:57.000Z,11.21
2022-10-01T11:48:57.000Z,11.21
2022-10-01T11:49:57.000Z,11.26
2022-10-01T11:50:57.000Z,11.24
2022-10-01T11:51:57.000Z,11.26
2022-10-01T11:52:57.000Z,11.28
2022-10-01T11:53:57.000Z,11.24
2022-10-01T11:54:57.000Z,11.26
2022-10-01T11:55:57.000Z,11.30
2022-10-01T11:56:57.000Z,11.26
2022-10-01T11:57:57.000Z,11.28
2022-10-01T11:58:57.000Z,11.26
2022-10-01T11:59:57.000Z,11.23
2022-10-01T12:00:57.000Z,11.24
2022-10-01T12:01:57.000Z,11.26
2022-10-01T12:02:57.000Z,11.23
2022-10-01T12:03:57.000Z,11.27
2022-10-01T12:04:57.000Z,11.24
2022-10-01T12:05:57.000Z,11.24
2022-10-01T12:06:57.000Z,11.24
2022-10-01T12:07:57.000Z,11.27
2022-10-01T12:08:57.000Z,11.23
2022-10-01T12:09:57.000Z,11.26
2022-10-01T12:10:57.000Z,11.27
2022-10-01T12:11:57.000Z,11.30
2022-10-01T12:12:57.000Z,11.27
2022-10-01T12:13:57.000Z,11.28
2022-10-01T12:14:57.000Z,11.31
2022-10-01T12:15:57.000Z,11.28
2022-10-01T12:16:56.000Z,11.31
2022-10-01T12:17:56.000Z,11.33
2022-10-01T12:18:56.000Z,11.36
2022-10-01T12:19:56.000Z,11.33
2022-10-01T12:20:56.000Z,11.33
2022-10-01T12:21:56.000Z,11.35
2022-10-01T12:22:56.000Z,11.35
2022-10-01T12:23:56.000Z,11.30
2022-10-01T12:24:56.000Z,11.31
2022-10-01T12:25:56.000Z,11.33
2022-10-01T12:26:56.000Z,11.31
2022-10-01T12:27:56.000Z,11.31
2022-10-01T12:28:56.000Z,11.33
2022-10-01T12:29:56.000Z,11.31
2022-10-01T12:30:56.000Z,11.33
2022-10-01T12:31:56.000Z,11.38
2022-10-01T12:32:56.000Z,11.38
2022-10-01T12:33:56.000Z,11.38
2022-10-01T12:34:56.000Z,11.42
2022-10-01T12:35:56.000Z,11.42
2022-10-01T12:36:56.000Z,11.44
2022-10-01T12:37:56.000Z,11.46
2022-10-01T12:38:56.000Z,11.51
2022-10-01T12:39:56.000Z,11.51
2022-10-01T12:40:56.000Z,11.53
2022-10-01T12:41:56.000Z,11.57
2022-10-01T12:42:56.000Z,11.59
2022-10-01T12:43:56.000Z,11.60
2022-10-01T12:44:56.000Z,11.63
2022-10-01T12:45:56.000Z,11.63
2022-10-01T12:46:56.000Z,11.67
2022-10-01T12:47:56.000Z,11.67
2022-10-01T12:48:56.000Z,11.69
2022-10-01T12:49:56.000Z,11.72
2022-10-01T12:50:56.000Z,11.74
2022-10-01T12:51:56.000Z,11.78
2022-10-01T12:52:56.000Z,11.79
2022-10-01T12:53:56.000Z,11.81
2022-10-01T12:54:56.000Z,11.81
2022-10-01T12:55:56.000Z,11.90
2022-10-01T12:56:56.000Z,11.90
2022-10-01T12:57:56.000Z,11.87
2022-10-01T12:58:56.000Z,11.87
2022-10-01T12:59:56.000Z,11.93
2022-10-01T13:00:56.000Z,11.94
2022-10-01T13:01:56.000Z,11.98
2022-10-01T13:02:56.000Z,11.97
2022-10-01T13:03:56.000Z,11.94